createdAt,value
2017-04-15T00:00:28.768Z,100450
2017-04-15T00:01:28.790Z,100443
2017-04-15T00:02:28.932Z,100449
2017-04-15T00:03:28.959Z,100444
2017-04-15T00:04:29.168Z,100438
2017-04-15T00:05:29.618Z,100442
2017-04-15T00:06:29.752Z,100444
2017-04-15T00:07:29.905Z,100445
2017-04-15T00:08:29.921Z,100438
2017-04-15T00:09:29.941Z,100447
2017-04-15T00:10:30.395Z,100436
2017-04-15T00:11:30.491Z,100444
2017-04-15T00:12:30.604Z,100434
2017-04-15T00:13:30.765Z,100430
2017-04-15T00:14:30.759Z,100432
2017-04-15T00:15:32.089Z,100433
2017-04-15T00:16:32.905Z,100432
2017-04-15T00:17:33.387Z,100428
2017-04-15T00:18:33.389Z,100427
2017-04-15T00:19:33.555Z,100428
2017-04-15T00:20:33.850Z,100422
2017-04-15T00:21:33.877Z,100424
2017-04-15T00:22:34.125Z,100426
2017-04-15T00:23:35.291Z,100423
2017-04-15T00:24:35.578Z,100426
2017-04-15T00:25:36.142Z,100420
2017-04-15T00:26:37.072Z,100415
2017-04-15T00:27:37.098Z,100421
2017-04-15T00:28:37.411Z,100417
2017-04-15T00:29:38.005Z,100415
2017-04-15T00:30:38.461Z,100407
2017-04-15T00:31:38.509Z,100410
2017-04-15T00:32:38.687Z,100407
2017-04-15T00:33:39.402Z,100405
2017-04-15T00:34:39.618Z,100406
2017-04-15T00:35:39.947Z,100409
2017-04-15T00:36:40.255Z,100406
2017-04-15T00:37:43.297Z,100407
2017-04-15T00:38:44.129Z,100405
2017-04-15T00:39:44.173Z,100393
2017-04-15T00:40:44.655Z,100398
2017-04-15T00:41:44.691Z,100393
2017-04-15T00:42:44.718Z,100387
2017-04-15T00:43:44.876Z,100381
2017-04-15T00:44:44.905Z,100384
2017-04-15T00:45:45.333Z,100385
2017-04-15T00:46:45.518Z,100388
2017-04-15T00:47:45.647Z,100386
2017-04-15T00:48:45.742Z,100384
2017-04-15T00:49:45.792Z,100381
2017-04-15T00:50:46.185Z,100384
2017-04-15T00:51:46.268Z,100381
2017-04-15T00:52:46.291Z,100380
2017-04-15T00:53:46.291Z,100378
2017-04-15T00:54:46.303Z,100372
2017-04-15T00:55:46.721Z,100369
2017-04-15T00:56:47.495Z,100359
2017-04-15T00:57:54.298Z,100363
2017-04-15T00:58:54.534Z,100365
2017-04-15T00:59:54.611Z,100357
2017-04-15T01:00:54.774Z,100369
2017-04-15T01:01:54.813Z,100362
2017-04-15T01:02:54.885Z,100357
2017-04-15T01:03:55.918Z,100356
2017-04-15T01:04:55.952Z,100356
2017-04-15T01:05:57.229Z,100350
2017-04-15T01:06:57.269Z,100353
2017-04-15T01:07:57.411Z,100354
2017-04-15T01:08:57.478Z,100353
2017-04-15T01:09:57.505Z,100354
2017-04-15T01:10:57.930Z,100352
2017-04-15T01:11:58.003Z,100346
2017-04-15T01:12:58.130Z,100349
2017-04-15T01:13:58.207Z,100339
2017-04-15T01:14:58.199Z,100351
2017-04-15T01:15:58.636Z,100345
2017-04-15T01:16:59.421Z,100335
2017-04-15T01:18:00.255Z,100336
2017-04-15T01:19:00.296Z,100341
2017-04-15T01:20:00.579Z,100338
2017-04-15T01:21:00.914Z,100334
2017-04-15T01:22:01.023Z,100336
2017-04-15T01:23:01.055Z,100341
2017-04-15T01:24:01.114Z,100338
2017-04-15T01:25:01.218Z,100338
2017-04-15T01:26:01.545Z,100336
2017-04-15T01:27:01.613Z,100336
2017-04-15T01:28:01.621Z,100337
2017-04-15T01:29:01.656Z,100324
2017-04-15T01:30:01.723Z,100330
2017-04-15T01:31:02.090Z,100332
2017-04-15T01:32:02.157Z,100317
2017-04-15T01:33:02.154Z,100326
2017-04-15T01:34:02.169Z,100316
2017-04-15T01:35:02.196Z,100315
2017-04-15T01:36:03.302Z,100313
2017-04-15T01:37:03.345Z,100313
2017-04-15T01:38:03.369Z,100304
2017-04-15T01:39:03.414Z,100313
2017-04-15T01:40:03.518Z,100300
2017-04-15T01:41:03.882Z,100303
2017-04-15T01:42:03.917Z,100292
2017-04-15T01:43:04.743Z,100293
2017-04-15T01:44:04.813Z,100290
2017-04-15T01:45:04.903Z,100282
2017-04-15T01:46:05.262Z,100273
2017-04-15T01:47:05.348Z,100279
2017-04-15T01:48:05.462Z,100277
2017-04-15T01:49:05.570Z,100277
2017-04-15T01:50:05.630Z,100270
2017-04-15T01:51:06.012Z,100272
2017-04-15T01:52:06.028Z,100270
2017-04-15T01:53:06.157Z,100272
2017-04-15T01:54:06.247Z,100274
2017-04-15T01:55:06.432Z,100268
2017-04-15T01:56:06.876Z,100271
2017-04-15T01:57:06.911Z,100271
2017-04-15T01:58:06.906Z,100270
2017-04-15T01:59:06.960Z,100267
2017-04-15T02:00:07.138Z,100255
2017-04-15T02:01:07.515Z,100267
2017-04-15T02:02:07.553Z,100263
2017-04-15T02:03:07.591Z,100272
2017-04-15T02:04:07.672Z,100250
2017-04-15T02:05:07.728Z,100262
2017-04-15T02:06:08.047Z,100247
2017-04-15T02:07:08.134Z,100255
2017-04-15T02:08:08.222Z,100248
2017-04-15T02:09:08.234Z,100254
2017-04-15T02:10:08.273Z,100254
2017-04-15T02:11:08.586Z,100252
2017-04-15T02:12:08.649Z,100270
2017-04-15T02:13:08.667Z,100256
2017-04-15T02:14:08.643Z,100256
2017-04-15T02:15:08.712Z,100249
2017-04-15T02:16:09.251Z,100244
2017-04-15T02:17:10.024Z,100248
2017-04-15T02:18:10.099Z,100239
2017-04-15T02:19:10.151Z,100238
2017-04-15T02:20:10.220Z,100236
2017-04-15T02:21:10.518Z,100235
2017-04-15T02:22:10.520Z,100231
2017-04-15T02:23:11.278Z,100234
2017-04-15T02:24:11.326Z,100236
2017-04-15T02:25:11.393Z,100223
2017-04-15T02:26:11.782Z,100230
2017-04-15T02:27:11.877Z,100223
2017-04-15T02:28:11.915Z,100228
2017-04-15T02:29:11.956Z,100226
2017-04-15T02:30:12.105Z,100215
2017-04-15T02:31:12.549Z,100221
2017-04-15T02:32:12.709Z,100217
2017-04-15T02:33:12.770Z,100219
2017-04-15T02:34:12.786Z,100217
2017-04-15T02:35:12.892Z,100210
2017-04-15T02:36:13.384Z,100209
2017-04-15T02:37:13.478Z,100207
2017-04-15T02:38:13.590Z,100206
2017-04-15T02:39:14.494Z,100189
2017-04-15T02:40:14.546Z,100205
2017-04-15T02:41:14.936Z,100203
2017-04-15T02:42:14.956Z,100203
2017-04-15T02:43:15.055Z,100202
2017-04-15T02:44:15.107Z,100197
2017-04-15T02:45:15.170Z,100216
2017-04-15T02:46:15.809Z,100194
2017-04-15T02:47:15.865Z,100200
2017-04-15T02:48:15.919Z,100203
2017-04-15T02:49:16.789Z,100201
2017-04-15T02:50:16.910Z,100201
2017-04-15T02:51:17.455Z,100203
2017-04-15T02:52:17.492Z,100202
2017-04-15T02:53:17.527Z,100191
2017-04-15T02:54:18.625Z,100199
2017-04-15T02:55:19.396Z,100202
2017-04-15T02:56:19.749Z,100203
2017-04-15T02:57:19.866Z,100201
2017-04-15T02:58:20.724Z,100187
2017-04-15T02:59:20.719Z,100186
2017-04-15T03:00:20.807Z,100180
2017-04-15T03:01:21.202Z,100171
2017-04-15T03:02:21.233Z,100172
2017-04-15T03:03:21.301Z,100167
2017-04-15T03:04:21.400Z,100177
2017-04-15T03:05:21.358Z,100169
2017-04-15T03:06:21.862Z,100163
2017-04-15T03:07:22.659Z,100162
2017-04-15T03:08:22.748Z,100157
2017-04-15T03:09:22.764Z,100152
2017-04-15T03:10:22.792Z,100151
2017-04-15T03:11:23.227Z,100148
2017-04-15T03:12:24.022Z,100145
2017-04-15T03:13:24.146Z,100146
2017-04-15T03:14:24.163Z,100143
2017-04-15T03:15:24.183Z,100132
2017-04-15T03:16:24.594Z,100132
2017-04-15T03:17:24.653Z,100127
2017-04-15T03:18:25.433Z,100139
2017-04-15T03:19:25.468Z,100134
2017-04-15T03:20:25.517Z,100134
2017-04-15T03:21:25.841Z,100134
2017-04-15T03:22:25.851Z,100136
2017-04-15T03:23:26.661Z,100142
2017-04-15T03:24:26.729Z,100140
2017-04-15T03:25:26.742Z,100134
2017-04-15T03:26:27.107Z,99949
2017-04-15T03:27:27.890Z,100133
2017-04-15T03:28:27.937Z,100133
2017-04-15T03:29:28.701Z,100128
2017-04-15T03:30:28.862Z,100128
2017-04-15T03:31:29.287Z,100122
2017-04-15T03:32:29.514Z,100118
2017-04-15T03:33:30.302Z,100116
2017-04-15T03:34:30.358Z,100121
2017-04-15T03:35:30.405Z,100119
2017-04-15T03:36:30.729Z,100109
2017-04-15T03:37:30.860Z,100117
2017-04-15T03:38:30.890Z,100115
2017-04-15T03:39:30.998Z,100108
2017-04-15T03:40:31.019Z,100106
2017-04-15T03:41:31.379Z,100106
2017-04-15T03:42:31.416Z,100101
2017-04-15T03:43:31.528Z,100103
2017-04-15T03:44:31.598Z,100101
2017-04-15T03:45:31.641Z,100112
2017-04-15T03:46:32.760Z,100105
2017-04-15T03:47:33.000Z,100106
2017-04-15T03:48:33.042Z,100102
2017-04-15T03:49:33.566Z,100097
2017-04-15T03:50:33.614Z,100086
2017-04-15T03:51:34.961Z,100094
2017-04-15T03:52:35.022Z,100088
2017-04-15T03:53:35.091Z,100092
2017-04-15T03:54:35.218Z,100089
2017-04-15T03:55:35.265Z,100086
2017-04-15T03:56:35.607Z,100089
2017-04-15T03:57:35.632Z,100099
2017-04-15T03:58:35.700Z,100081
2017-04-15T03:59:35.698Z,100085
2017-04-15T04:00:35.772Z,100094
2017-04-15T04:01:36.137Z,100080
2017-04-15T04:02:36.172Z,100081
2017-04-15T04:03:36.265Z,100081
2017-04-15T04:04:36.374Z,100085
2017-04-15T04:05:36.382Z,100080
2017-04-15T04:06:36.690Z,100084
2017-04-15T04:07:36.755Z,100078
2017-04-15T04:08:36.768Z,100075
2017-04-15T04:09:36.778Z,100081
2017-04-15T04:10:36.826Z,100076
2017-04-15T04:11:37.163Z,100069
2017-04-15T04:12:37.181Z,100069
2017-04-15T04:13:37.259Z,100066
2017-04-15T04:14:37.501Z,100063
2017-04-15T04:15:37.653Z,100065
2017-04-15T04:16:38.081Z,100062
2017-04-15T04:17:38.850Z,100064
2017-04-15T04:18:38.937Z,100065
2017-04-15T04:19:39.113Z,100056
2017-04-15T04:20:39.232Z,100062
2017-04-15T04:21:40.454Z,100058
2017-04-15T04:22:40.530Z,100056
2017-04-15T04:23:41.311Z,100052
2017-04-15T04:24:41.450Z,100041
2017-04-15T04:25:41.673Z,100048
2017-04-15T04:26:42.028Z,100048
2017-04-15T04:27:42.244Z,100036
2017-04-15T04:28:43.064Z,100040
2017-04-15T04:29:45.939Z,100041
2017-04-15T04:30:45.994Z,100039
2017-04-15T04:31:46.430Z,100049
2017-04-15T04:32:46.606Z,100046
2017-04-15T04:33:46.685Z,100034
2017-04-15T04:34:46.917Z,100031
2017-04-15T04:35:46.918Z,100035
2017-04-15T04:36:47.342Z,100023
2017-04-15T04:37:47.360Z,100027
2017-04-15T04:38:47.395Z,100039
2017-04-15T04:39:47.424Z,100042
2017-04-15T04:40:47.577Z,100045
2017-04-15T04:41:47.962Z,100038
2017-04-15T04:42:48.832Z,100040
2017-04-15T04:43:48.855Z,100032
2017-04-15T04:44:49.054Z,100025
2017-04-15T04:45:49.148Z,100027
2017-04-15T04:46:49.531Z,100021
2017-04-15T04:47:49.527Z,100027
2017-04-15T04:48:49.653Z,100024
2017-04-15T04:49:50.425Z,100031
2017-04-15T04:50:50.840Z,100024
2017-04-15T04:51:51.174Z,100017
2017-04-15T04:52:51.334Z,100015
2017-04-15T04:53:51.413Z,100019
2017-04-15T04:54:51.406Z,100015
2017-04-15T04:55:51.455Z,100016
2017-04-15T04:56:51.859Z,100022
2017-04-15T04:57:51.866Z,100016
2017-04-15T04:58:51.929Z,100021
2017-04-15T04:59:51.922Z,100014
2017-04-15T05:00:51.986Z,100022
2017-04-15T05:01:53.110Z,100008
2017-04-15T05:02:53.150Z,100008
2017-04-15T05:03:53.162Z,100012
2017-04-15T05:04:53.191Z,100007
2017-04-15T05:05:53.265Z,100008
2017-04-15T05:06:53.643Z,100008
2017-04-15T05:07:53.697Z,100005
2017-04-15T05:08:53.702Z,100011
2017-04-15T05:09:53.785Z,100004
2017-04-15T05:10:53.963Z,100007
2017-04-15T05:11:55.013Z,99998
2017-04-15T05:12:55.785Z,100003
2017-04-15T05:13:55.960Z,100009
2017-04-15T05:14:56.743Z,100000
2017-04-15T05:15:56.747Z,100002
2017-04-15T05:16:57.095Z,100000
2017-04-15T05:17:57.857Z,100003
2017-04-15T05:18:57.900Z,100004
2017-04-15T05:19:57.922Z,100006
2017-04-15T05:20:57.898Z,99997
2017-04-15T05:21:58.246Z,99992
2017-04-15T05:22:58.250Z,99993
2017-04-15T05:23:58.218Z,99999
2017-04-15T05:24:58.254Z,100000
2017-04-15T05:25:58.257Z,100005
2017-04-15T05:26:58.576Z,100006
2017-04-15T05:27:58.692Z,99998
2017-04-15T05:28:58.795Z,100009
2017-04-15T05:29:58.804Z,100011
2017-04-15T05:30:58.820Z,100006
2017-04-15T05:31:59.126Z,100013
2017-04-15T05:32:59.210Z,100014
2017-04-15T05:33:59.306Z,100021
2017-04-15T05:34:59.398Z,100012
2017-04-15T05:35:59.479Z,100014
2017-04-15T05:36:58.770Z,100007
2017-04-15T05:37:58.863Z,100006
2017-04-15T05:38:59.647Z,100004
2017-04-15T05:39:59.758Z,100002
2017-04-15T05:40:59.767Z,100004
2017-04-15T05:41:59.757Z,99999
2017-04-15T05:43:00.132Z,100005
2017-04-15T05:44:00.942Z,100004
2017-04-15T05:45:00.969Z,100007
2017-04-15T05:46:01.759Z,100020
2017-04-15T05:47:02.777Z,100017
2017-04-15T05:48:02.862Z,100010
2017-04-15T05:49:03.025Z,100017
2017-04-15T05:50:03.145Z,100021
2017-04-15T05:51:03.266Z,100007
2017-04-15T05:52:04.045Z,100012
2017-04-15T05:53:05.233Z,100013
2017-04-15T05:54:05.302Z,100014
2017-04-15T05:55:05.384Z,100012
2017-04-15T05:56:06.155Z,100015
2017-04-15T05:57:06.179Z,100009
2017-04-15T05:58:06.528Z,100015
2017-04-15T05:59:06.566Z,100015
2017-04-15T06:00:06.639Z,100018
2017-04-15T06:01:06.691Z,100017
2017-04-15T06:02:07.449Z,100017
2017-04-15T06:03:07.907Z,100023
2017-04-15T06:04:08.059Z,100016
2017-04-15T06:05:08.161Z,100016
2017-04-15T06:06:08.897Z,100013
2017-04-15T06:07:08.934Z,100012
2017-04-15T06:08:09.298Z,100009
2017-04-15T06:09:09.412Z,100009
2017-04-15T06:10:10.141Z,100009
2017-04-15T06:11:10.894Z,100010
2017-04-15T06:12:10.935Z,100013
2017-04-15T06:13:12.080Z,100014
2017-04-15T06:14:12.102Z,100016
2017-04-15T06:15:12.188Z,100010
2017-04-15T06:16:12.186Z,100006
2017-04-15T06:17:12.225Z,100004
2017-04-15T06:18:13.258Z,100006
2017-04-15T06:19:14.135Z,100010
2017-04-15T06:20:14.274Z,100004
2017-04-15T06:21:14.321Z,100003
2017-04-15T06:22:14.346Z,100003
2017-04-15T06:23:14.713Z,100004
2017-04-15T06:24:14.695Z,100002
2017-04-15T06:25:15.505Z,100015
2017-04-15T06:26:15.534Z,100002
2017-04-15T06:27:15.553Z,99995
2017-04-15T06:28:15.881Z,99998
2017-04-15T06:29:16.650Z,100000
2017-04-15T06:30:16.699Z,100000
2017-04-15T06:31:16.822Z,99983
2017-04-15T06:32:16.881Z,99989
2017-04-15T06:33:17.406Z,99984
2017-04-15T06:34:17.387Z,99980
2017-04-15T06:35:17.491Z,99984
2017-04-15T06:36:17.529Z,99977
2017-04-15T06:37:17.697Z,99979
2017-04-15T06:38:18.139Z,99985
2017-04-15T06:39:18.302Z,99986
2017-04-15T06:40:19.143Z,99980
2017-04-15T06:41:19.131Z,99981
2017-04-15T06:42:19.117Z,99992
2017-04-15T06:43:19.574Z,99981
2017-04-15T06:44:21.034Z,99989
2017-04-15T06:45:21.057Z,99982
2017-04-15T06:46:21.082Z,99982
2017-04-15T06:47:27.586Z,99991
2017-04-15T06:48:28.382Z,99991
2017-04-15T06:49:28.450Z,99987
2017-04-15T06:50:28.438Z,99991
2017-04-15T06:51:28.497Z,99991
2017-04-15T06:52:29.157Z,99985
2017-04-15T06:53:29.551Z,99989
2017-04-15T06:54:29.554Z,99983
2017-04-15T06:55:29.733Z,99991
2017-04-15T06:56:29.846Z,99983
2017-04-15T06:57:29.909Z,99977
2017-04-15T06:58:30.345Z,99975
2017-04-15T06:59:30.372Z,99978
2017-04-15T07:00:30.433Z,99983
2017-04-15T07:01:30.554Z,99983
2017-04-15T07:02:30.573Z,99975
2017-04-15T07:03:30.945Z,99979
2017-04-15T07:04:31.163Z,99981
2017-04-15T07:05:31.931Z,99969
2017-04-15T07:06:32.037Z,99977
2017-04-15T07:07:32.075Z,99976
2017-04-15T07:08:32.638Z,99978
2017-04-15T07:09:32.804Z,99968
2017-04-15T07:10:33.158Z,99975
2017-04-15T07:11:33.915Z,99971
2017-04-15T07:12:34.051Z,99968
2017-04-15T07:13:34.580Z,99975
2017-04-15T07:14:34.620Z,99982
2017-04-15T07:15:34.648Z,99978
2017-04-15T07:16:34.672Z,99980
2017-04-15T07:17:34.997Z,99987
2017-04-15T07:18:35.462Z,99977
2017-04-15T07:19:35.545Z,99981
2017-04-15T07:20:36.548Z,99977
2017-04-15T07:21:36.632Z,99973
2017-04-15T07:22:36.699Z,99975
2017-04-15T07:23:37.019Z,99974
2017-04-15T07:24:37.822Z,99976
2017-04-15T07:25:37.870Z,99972
2017-04-15T07:26:37.906Z,99971
2017-04-15T07:27:37.967Z,99965
2017-04-15T07:28:38.382Z,99967
2017-04-15T07:29:38.517Z,99970
2017-04-15T07:30:38.898Z,99970
2017-04-15T07:31:40.696Z,99968
2017-04-15T07:32:40.790Z,99974
2017-04-15T07:33:41.178Z,99973
2017-04-15T07:34:41.254Z,99968
2017-04-15T07:35:41.370Z,99969
2017-04-15T07:36:41.451Z,99970
2017-04-15T07:37:41.503Z,99966
2017-04-15T07:38:43.076Z,99968
2017-04-15T07:39:43.175Z,99967
2017-04-15T07:40:45.018Z,99968
2017-04-15T07:41:45.163Z,99966
2017-04-15T07:42:45.230Z,99969
2017-04-15T07:43:46.363Z,99962
2017-04-15T07:44:47.291Z,99958
2017-04-15T07:45:48.093Z,99967
2017-04-15T07:46:48.138Z,99971
2017-04-15T07:47:48.225Z,99962
2017-04-15T07:48:48.643Z,99965
2017-04-15T07:49:49.602Z,99965
2017-04-15T07:50:49.674Z,99967
2017-04-15T07:51:49.806Z,99966
2017-04-15T07:52:49.934Z,99959
2017-04-15T07:53:50.523Z,99961
2017-04-15T07:54:51.428Z,99959
2017-04-15T07:55:51.501Z,99957
2017-04-15T07:56:51.560Z,99965
2017-04-15T07:57:51.599Z,99965
2017-04-15T07:58:52.097Z,99960
2017-04-15T07:59:52.262Z,99964
2017-04-15T08:00:52.461Z,99962
2017-04-15T08:01:52.517Z,99966
2017-04-15T08:02:53.334Z,99968
2017-04-15T08:03:53.631Z,99965
2017-04-15T08:04:53.787Z,99965
2017-04-15T08:05:54.005Z,99963
2017-04-15T08:06:54.232Z,99968
2017-04-15T08:07:54.282Z,99972
2017-04-15T08:08:54.840Z,99966
2017-04-15T08:09:55.036Z,99977
2017-04-15T08:10:55.769Z,99967
2017-04-15T08:11:55.909Z,99971
2017-04-15T08:12:55.995Z,99966
2017-04-15T08:13:56.374Z,99973
2017-04-15T08:14:56.382Z,99967
2017-04-15T08:15:57.212Z,99966
2017-04-15T08:16:58.025Z,99968
2017-04-15T08:17:58.082Z,99966
2017-04-15T08:18:58.562Z,99974
2017-04-15T08:19:58.673Z,99968
2017-04-15T08:20:58.814Z,99962
2017-04-15T08:21:58.861Z,99972
2017-04-15T08:22:58.967Z,99970
2017-04-15T08:23:59.410Z,99975
2017-04-15T08:24:59.906Z,99968
2017-04-15T08:25:59.951Z,99970
2017-04-15T08:27:00.024Z,99969
2017-04-15T08:28:00.207Z,99965
2017-04-15T08:29:00.578Z,99970
2017-04-15T08:30:00.592Z,99970
2017-04-15T08:31:00.672Z,99980
2017-04-15T08:32:00.726Z,99960
2017-04-15T08:33:00.944Z,99972
2017-04-15T08:34:01.833Z,99970
2017-04-15T08:35:01.966Z,99968
2017-04-15T08:36:02.009Z,99979
2017-04-15T08:37:02.083Z,99970
2017-04-15T08:38:02.176Z,99971
2017-04-15T08:39:03.330Z,99969
2017-04-15T08:40:03.409Z,99974
2017-04-15T08:41:03.693Z,99970
2017-04-15T08:42:03.792Z,99982
2017-04-15T08:43:04.672Z,99972
2017-04-15T08:44:05.184Z,99978
2017-04-15T08:45:06.549Z,99984
2017-04-15T08:46:06.608Z,99973
2017-04-15T08:47:06.980Z,99969
2017-04-15T08:48:07.251Z,99978
2017-04-15T08:49:07.775Z,99968
2017-04-15T08:50:08.597Z,99973
2017-04-15T08:51:09.433Z,99969
2017-04-15T08:52:10.205Z,99971
2017-04-15T08:53:10.298Z,99972
2017-04-15T08:54:10.804Z,99968
2017-04-15T08:55:10.789Z,99970
2017-04-15T08:56:11.614Z,99968
2017-04-15T08:57:12.382Z,99966
2017-04-15T08:58:12.410Z,99969
2017-04-15T08:59:12.841Z,99969
2017-04-15T09:00:12.968Z,99973
2017-04-15T09:01:13.985Z,99971
2017-04-15T09:02:14.148Z,99977
2017-04-15T09:03:14.129Z,99979
2017-04-15T09:04:14.534Z,99969
2017-04-15T09:05:14.711Z,99983
2017-04-15T09:06:14.708Z,99980
2017-04-15T09:07:14.843Z,99976
2017-04-15T09:08:15.037Z,99976
2017-04-15T09:09:15.478Z,99983
2017-04-15T09:10:15.939Z,99980
2017-04-15T09:11:16.115Z,99976
2017-04-15T09:12:16.248Z,99973
2017-04-15T09:13:16.387Z,99976
2017-04-15T09:14:16.844Z,99977
2017-04-15T09:15:17.052Z,99979
2017-04-15T09:16:18.437Z,99983
2017-04-15T09:17:18.635Z,99973
2017-04-15T09:18:18.726Z,99980
2017-04-15T09:19:19.118Z,99982
2017-04-15T09:20:19.288Z,99991
2017-04-15T09:21:21.770Z,99976
2017-04-15T09:22:22.018Z,99974
2017-04-15T09:23:22.160Z,99984
2017-04-15T09:24:22.548Z,99976
2017-04-15T09:25:22.608Z,99972
2017-04-15T09:26:22.678Z,99979
2017-04-15T09:27:27.556Z,99983
2017-04-15T09:28:27.696Z,99978
2017-04-15T09:29:28.104Z,99977
2017-04-15T09:30:29.065Z,99978
2017-04-15T09:31:29.375Z,99985
2017-04-15T09:32:29.526Z,99983
2017-04-15T09:33:29.663Z,99987
2017-04-15T09:34:30.310Z,99990
2017-04-15T09:35:31.104Z,100010
2017-04-15T09:36:31.289Z,99980
2017-04-15T09:37:31.397Z,99973
2017-04-15T09:38:31.815Z,99991
2017-04-15T09:39:32.253Z,99968
2017-04-15T09:40:33.195Z,99976
2017-04-15T09:41:34.101Z,99980
2017-04-15T09:42:35.490Z,99979
2017-04-15T09:43:35.793Z,99975
2017-04-15T09:44:36.223Z,99973
2017-04-15T09:45:36.301Z,99979
2017-04-15T09:46:36.380Z,99984
2017-04-15T09:47:36.567Z,99981
2017-04-15T09:48:36.753Z,99978
2017-04-15T09:49:37.130Z,99978
2017-04-15T09:50:37.258Z,99967
2017-04-15T09:51:37.343Z,99977
2017-04-15T09:52:37.388Z,100003
2017-04-15T09:53:37.478Z,99969
2017-04-15T09:54:38.010Z,99974
2017-04-15T09:55:38.079Z,99978
2017-04-15T09:56:38.140Z,99973
2017-04-15T09:57:38.371Z,99986
2017-04-15T09:58:38.448Z,99982
2017-04-15T09:59:38.951Z,99980
2017-04-15T10:00:39.046Z,99989
2017-04-15T10:01:39.223Z,99974
2017-04-15T10:02:39.353Z,99979
2017-04-15T10:03:39.453Z,99984
2017-04-15T10:04:39.960Z,99975
2017-04-15T10:05:40.146Z,99978
2017-04-15T10:06:40.242Z,99988
2017-04-15T10:07:40.272Z,99995
2017-04-15T10:08:40.374Z,99984
2017-04-15T10:09:40.713Z,99999
2017-04-15T10:10:40.791Z,100011
2017-04-15T10:11:40.845Z,100007
2017-04-15T10:12:40.967Z,100022
2017-04-15T10:13:41.099Z,100014
2017-04-15T10:14:41.686Z,100022
2017-04-15T10:15:41.877Z,100017
2017-04-15T10:16:41.949Z,100007
2017-04-15T10:17:42.090Z,100012
2017-04-15T10:18:42.189Z,100003
2017-04-15T10:19:42.624Z,100003
2017-04-15T10:20:43.685Z,100009
2017-04-15T10:21:43.737Z,100004
2017-04-15T10:32:04.000Z,100016
2017-04-15T10:33:04.169Z,100065
2017-04-15T10:34:04.901Z,100052
2017-04-15T10:35:04.966Z,100065
2017-04-15T10:36:05.396Z,100083
2017-04-15T10:37:05.790Z,100081
2017-04-15T10:38:06.619Z,100047
2017-04-15T10:39:07.576Z,100032
2017-04-15T10:40:07.818Z,100036
2017-04-15T10:41:08.185Z,100033
2017-04-15T10:42:08.339Z,100033
2017-04-15T10:43:12.541Z,100020
2017-04-15T10:44:12.549Z,100016
2017-04-15T10:45:12.830Z,100026
2017-04-15T10:46:13.203Z,100024
2017-04-15T10:47:13.344Z,100031
2017-04-15T10:48:14.421Z,100030
2017-04-15T10:49:15.067Z,100028
2017-04-15T10:50:16.969Z,100029
2017-04-15T10:51:17.519Z,100039
2017-04-15T10:52:18.653Z,100022
2017-04-15T10:53:18.746Z,100017
2017-04-15T10:54:18.777Z,100038
2017-04-15T10:55:18.843Z,100038
2017-04-15T10:56:19.234Z,100027
2017-04-15T10:57:19.399Z,100039
2017-04-15T10:58:19.527Z,100021
2017-04-15T10:59:19.634Z,100019
2017-04-15T11:00:19.857Z,100029
2017-04-15T11:01:20.286Z,100026
2017-04-15T11:02:21.299Z,100021
2017-04-15T11:03:21.519Z,100033
2017-04-15T11:04:21.718Z,100033
2017-04-15T11:05:22.154Z,100046
2017-04-15T11:06:23.632Z,100020
2017-04-15T11:07:23.893Z,100026
2017-04-15T11:08:30.706Z,100030
2017-04-15T11:09:37.204Z,100026
2017-04-15T11:10:37.348Z,100035
2017-04-15T11:11:38.582Z,100064
2017-04-15T11:13:02.868Z,100068
2017-04-15T11:14:08.315Z,100059
2017-04-15T11:15:08.812Z,100063
2017-04-15T11:16:08.946Z,100046
2017-04-15T11:17:09.469Z,100028
2017-04-15T11:18:13.312Z,100041
2017-04-15T11:19:13.977Z,100038
2017-04-15T11:20:14.035Z,100034
2017-04-15T11:21:14.918Z,100022
2017-04-15T11:22:15.118Z,100047
2017-04-15T11:23:17.388Z,100033
2017-04-15T11:24:17.691Z,100045
2017-04-15T11:25:17.860Z,100044
2017-04-15T11:26:17.949Z,100050
2017-04-15T11:27:18.430Z,100062
2017-04-15T11:28:18.639Z,100052
2017-04-15T11:29:18.681Z,100035
2017-04-15T11:30:19.251Z,100059
2017-04-15T11:31:19.323Z,100044
2017-04-15T11:32:19.878Z,100045
2017-04-15T11:33:20.055Z,100058
2017-04-15T11:34:20.091Z,100056
2017-04-15T11:35:20.906Z,100056
2017-04-15T11:36:20.953Z,100049
2017-04-15T11:37:21.566Z,100059
2017-04-15T11:38:22.487Z,100074
2017-04-15T11:39:22.657Z,100059
2017-04-15T11:40:22.682Z,100043
2017-04-15T11:41:22.770Z,100056
2017-04-15T11:42:23.209Z,100050
2017-04-15T11:43:23.372Z,100049
2017-04-15T11:44:23.422Z,100058
2017-04-15T11:45:23.555Z,100079
2017-04-15T11:46:23.721Z,100054
2017-04-15T11:47:24.109Z,100062
2017-04-15T11:48:24.154Z,100061
2017-04-15T11:49:24.190Z,100083
2017-04-15T11:50:24.301Z,100082
2017-04-15T11:51:24.447Z,100078
2017-04-15T11:52:24.990Z,100081
2017-04-15T11:53:25.079Z,100066
2017-04-15T11:54:25.250Z,100057
2017-04-15T11:55:25.317Z,100062
2017-04-15T11:56:25.370Z,100101
2017-04-15T11:57:25.767Z,100070
2017-04-15T11:58:26.642Z,100068
2017-04-15T11:59:26.701Z,100078
2017-04-15T12:00:26.836Z,100081
2017-04-15T12:01:26.914Z,100073
2017-04-15T12:02:27.732Z,100075
2017-04-15T12:03:27.994Z,100084
2017-04-15T12:04:28.104Z,100098
2017-04-15T12:05:28.139Z,100094
2017-04-15T12:06:28.301Z,100092
2017-04-15T12:07:28.799Z,100082
2017-04-15T12:08:29.602Z,100105
2017-04-15T12:09:29.714Z,100090
2017-04-15T12:10:29.757Z,100102
2017-04-15T12:11:29.997Z,100101
2017-04-15T12:12:30.478Z,100093
2017-04-15T12:13:30.596Z,100117
2017-04-15T12:14:30.694Z,100120
2017-04-15T12:15:31.590Z,100127
2017-04-15T12:16:31.692Z,100132
2017-04-15T12:17:32.182Z,100157
2017-04-15T12:18:32.273Z,100131
2017-04-15T12:19:32.353Z,100130
2017-04-15T12:20:32.394Z,100136
2017-04-15T12:21:32.471Z,100164
2017-04-15T12:22:32.989Z,100148
2017-04-15T12:23:33.074Z,100153
2017-04-15T12:24:33.218Z,100147
2017-04-15T12:25:33.270Z,100147
2017-04-15T12:26:33.414Z,100141
2017-04-15T12:27:33.846Z,100140
2017-04-15T12:28:33.926Z,100129
2017-04-15T12:29:34.053Z,100149
2017-04-15T12:30:34.216Z,100133
2017-04-15T12:31:34.328Z,100133
2017-04-15T12:32:35.101Z,100145
2017-04-15T12:33:35.369Z,100138
2017-04-15T12:34:35.967Z,100141
2017-04-15T12:35:36.115Z,100132
2017-04-15T12:36:36.200Z,100136
2017-04-15T12:37:36.735Z,100143
2017-04-15T12:38:37.195Z,100118
2017-04-15T12:39:38.025Z,100151
2017-04-15T12:40:38.082Z,100154
2017-04-15T12:41:38.881Z,100139
2017-04-15T12:42:39.211Z,100131
2017-04-15T12:43:39.434Z,100134
2017-04-15T12:44:39.590Z,100156
2017-04-15T12:45:40.412Z,100139
2017-04-15T12:46:41.284Z,100134
2017-04-15T12:47:41.681Z,100131
2017-04-15T12:48:41.745Z,100132
2017-04-15T12:49:42.567Z,100132